Time;durP1;ratioP1;P1;durP2;ratioP2;P2;SDS_P1;SDS_P2;PMS_P1;PMS_P2;Temp;Humidity;BMP_temperature;BMP_pressure;BME280_temperature;BME280_humidity;BME280_pressure;Samples;Min_cycle;Max_cycle;Signal;HPM_P1;HPM_P2
2022/05/06 00:02:15;;;;;;;17.77;15.88;;;14.70;99.90;;;;;;5047460;28;20208;-61
2022/05/06 00:04:43;;;;;;;18.05;16.05;;;14.30;99.90;;;;;;5049908;28;20197;-61
2022/05/06 00:07:12;;;;;;;17.67;15.98;;;14.10;99.90;;;;;;5044272;28;20541;-61
2022/05/06 00:09:39;;;;;;;18.55;15.38;;;14.20;99.90;;;;;;5048424;28;20200;-61
2022/05/06 00:12:08;;;;;;;16.55;14.90;;;14.10;99.90;;;;;;5048927;28;20178;-61
2022/05/06 00:14:35;;;;;;;20.45;16.65;;;14.40;99.90;;;;;;5050174;28;20289;-61
2022/05/06 00:17:04;;;;;;;19.25;16.05;;;14.60;99.90;;;;;;5040529;28;20292;-61
2022/05/06 00:19:29;;;;;;;17.83;16.02;;;14.20;99.90;;;;;;5046895;28;20243;-61
2022/05/06 00:21:55;;;;;;;18.70;15.77;;;14.10;99.90;;;;;;5047912;28;20226;-61
2022/05/06 00:24:21;;;;;;;19.93;16.30;;;14.40;99.90;;;;;;5041662;28;20229;-61
2022/05/06 00:26:46;;;;;;;18.13;14.77;;;14.50;99.90;;;;;;5042265;28;20281;-61
2022/05/06 00:29:12;;;;;;;20.73;15.60;;;14.30;99.90;;;;;;5042283;28;20557;-62
2022/05/06 00:31:38;;;;;;;16.40;14.27;;;14.60;99.90;;;;;;5044250;28;20181;-61
2022/05/06 00:34:03;;;;;;;18.53;14.93;;;14.50;99.90;;;;;;5044211;28;20288;-61
2022/05/06 00:36:29;;;;;;;17.53;15.50;;;14.40;99.90;;;;;;5045605;28;20701;-61
2022/05/06 00:38:54;;;;;;;18.87;16.87;;;14.40;99.90;;;;;;5041217;28;20181;-61
2022/05/06 00:41:20;;;;;;;18.40;16.20;;;14.40;99.90;;;;;;5046159;28;20281;-61
2022/05/06 00:43:46;;;;;;;20.47;14.80;;;14.30;99.90;;;;;;5047099;28;20646;-61
2022/05/06 00:46:15;;;;;;;19.00;15.73;;;14.30;99.90;;;;;;5044548;28;20691;-61
2022/05/06 00:48:45;;;;;;;15.32;13.43;;;14.50;99.90;;;;;;5048944;28;20190;-61
2022/05/06 00:51:11;;;;;;;18.90;15.70;;;14.30;99.90;;;;;;5045463;28;20330;-61
2022/05/06 00:53:39;;;;;;;17.02;14.45;;;14.30;99.90;;;;;;5044662;28;20635;-61
2022/05/06 00:56:07;;;;;;;17.55;15.55;;;14.30;99.90;;;;;;5042572;28;20189;-61
2022/05/06 00:58:33;;;;;;;20.52;15.60;;;14.40;99.90;;;;;;5048455;28;20181;-61
2022/05/06 01:01:01;;;;;;;17.13;15.33;;;14.50;99.90;;;;;;5042808;28;20657;-61
2022/05/06 01:03:26;;;;;;;18.38;16.38;;;14.10;99.90;;;;;;5048717;28;20450;-61
2022/05/06 01:05:52;;;;;;;18.70;15.60;;;14.50;99.90;;;;;;5043414;28;20217;-62
2022/05/06 01:08:19;;;;;;;17.55;14.95;;;14.30;99.90;;;;;;5048798;28;20193;-61
2022/05/06 01:10:45;;;;;;;19.77;15.40;;;14.50;99.90;;;;;;5050118;28;20227;-61
2022/05/06 01:13:10;;;;;;;18.00;16.10;;;14.50;99.90;;;;;;5045814;28;20182;-61
2022/05/06 01:15:37;;;;;;;20.87;15.80;;;14.50;99.90;;;;;;5046604;28;20455;-61
2022/05/06 01:18:04;;;;;;;20.45;16.00;;;14.80;99.90;;;;;;5049013;28;20243;-61
2022/05/06 01:20:37;;;;;;;17.73;15.27;;;14.20;99.90;;;;;;5044150;28;20173;-61
2022/05/06 01:23:04;;;;;;;19.27;15.55;;;14.40;99.90;;;;;;5047837;28;20673;-61
2022/05/06 01:25:30;;;;;;;19.17;15.50;;;14.10;99.90;;;;;;5051259;28;20292;-61
2022/05/06 01:28:01;;;;;;;21.30;17.13;;;14.20;99.90;;;;;;5048770;28;20200;-61
2022/05/06 01:30:34;;;;;;;19.42;14.68;;;14.20;99.90;;;;;;5052294;28;20197;-62
2022/05/06 01:33:02;;;;;;;19.40;15.50;;;14.60;99.90;;;;;;5052056;28;20192;-61
2022/05/06 01:35:29;;;;;;;19.33;15.88;;;14.40;99.90;;;;;;5052800;28;20867;-61
2022/05/06 01:38:00;;;;;;;18.95;15.65;;;14.50;99.90;;;;;;5050896;28;20196;-60
2022/05/06 01:40:27;;;;;;;16.90;14.77;;;14.20;99.90;;;;;;5049566;28;20753;-61
2022/05/06 01:42:59;;;;;;;20.23;15.50;;;14.60;99.90;;;;;;5050668;28;20202;-61
2022/05/06 01:45:28;;;;;;;18.77;14.85;;;14.50;99.90;;;;;;5049595;28;20615;-61
2022/05/06 01:47:55;;;;;;;21.95;17.15;;;14.20;99.90;;;;;;5050071;28;20612;-61
2022/05/06 01:50:21;;;;;;;19.50;16.52;;;14.60;99.90;;;;;;5050065;28;20177;-61
2022/05/06 01:52:50;;;;;;;19.75;16.70;;;14.30;99.90;;;;;;5051909;28;20847;-61
2022/05/06 01:55:17;;;;;;;19.92;16.42;;;14.50;99.90;;;;;;5050326;28;20625;-61
2022/05/06 01:57:44;;;;;;;18.55;15.85;;;14.50;99.90;;;;;;5051074;28;20221;-61
2022/05/06 02:00:12;;;;;;;18.00;15.85;;;14.40;99.90;;;;;;5050933;28;20235;-61
2022/05/06 02:02:37;;;;;;;19.00;16.30;;;14.30;99.90;;;;;;5048021;28;20191;-61
2022/05/06 02:05:19;;;;;;;18.53;15.90;;;14.30;99.90;;;;;;5052451;28;20205;-61
2022/05/06 02:07:52;;;;;;;19.25;15.38;;;14.40;99.90;;;;;;5046700;28;20263;-61
2022/05/06 02:10:20;;;;;;;18.20;14.68;;;14.70;99.90;;;;;;5043319;28;20205;-60
2022/05/06 02:12:46;;;;;;;16.42;14.73;;;14.80;99.90;;;;;;5050308;28;20178;-60
2022/05/06 02:15:13;;;;;;;17.35;15.43;;;14.30;99.90;;;;;;5043966;28;20202;-60
2022/05/06 02:17:39;;;;;;;17.23;15.05;;;14.40;99.90;;;;;;5048840;28;20264;-60
2022/05/06 02:20:08;;;;;;;19.42;14.52;;;14.20;99.90;;;;;;5051007;28;20194;-61
2022/05/06 02:22:35;;;;;;;16.50;14.73;;;14.40;99.90;;;;;;5051041;28;20235;-60
2022/05/06 02:25:00;;;;;;;18.67;16.10;;;14.30;99.90;;;;;;5050797;28;20234;-61
2022/05/06 02:27:26;;;;;;;18.23;15.60;;;14.10;99.90;;;;;;5046622;28;20213;-61
2022/05/06 02:35:21;;;;;;;18.23;15.32;;;13.80;99.90;;;;;;5047529;28;20296;-60
2022/05/06 02:37:47;;;;;;;18.25;14.52;;;13.90;99.90;;;;;;5051375;28;20201;-60
2022/05/06 02:40:13;;;;;;;16.93;15.03;;;14.10;99.90;;;;;;5051529;28;20266;-60
2022/05/06 02:42:39;;;;;;;15.00;13.45;;;13.70;99.90;;;;;;5050360;28;20446;-61
2022/05/06 02:45:05;;;;;;;16.87;14.90;;;14.00;99.90;;;;;;5049203;28;20280;-61
2022/05/06 02:47:31;;;;;;;16.60;14.80;;;14.00;99.90;;;;;;5062450;28;20527;-60
2022/05/06 02:49:56;;;;;;;18.17;13.23;;;14.10;99.90;;;;;;5047239;28;20177;-61
2022/05/06 02:52:23;;;;;;;16.10;14.40;;;14.20;99.90;;;;;;5050991;28;20190;-61
2022/05/06 02:54:49;;;;;;;15.85;13.57;;;14.00;99.90;;;;;;5044175;28;20606;-60
2022/05/06 02:57:15;;;;;;;16.40;14.38;;;13.80;99.90;;;;;;5050318;28;20177;-60
2022/05/06 02:59:41;;;;;;;22.47;15.20;;;14.00;99.90;;;;;;5044654;28;20245;-61
2022/05/06 03:02:07;;;;;;;14.23;12.80;;;13.90;99.90;;;;;;5040700;28;20288;-61
2022/05/06 03:04:33;;;;;;;14.52;13.05;;;14.00;99.90;;;;;;5046037;28;20289;-61
2022/05/06 03:07:00;;;;;;;14.10;12.63;;;14.20;99.90;;;;;;5047242;28;20263;-61
2022/05/06 03:09:25;;;;;;;17.08;15.30;;;14.10;99.90;;;;;;5040722;28;20186;-61
2022/05/06 03:11:52;;;;;;;16.53;14.60;;;14.00;99.90;;;;;;5048536;28;20190;-60
2022/05/06 03:14:17;;;;;;;15.30;13.60;;;14.20;99.90;;;;;;5044903;28;20885;-61
2022/05/06 03:16:43;;;;;;;14.23;12.73;;;14.00;99.90;;;;;;5042851;28;20178;-60
2022/05/06 03:19:10;;;;;;;17.70;14.53;;;13.90;99.90;;;;;;5044743;28;20187;-60
2022/05/06 03:21:36;;;;;;;16.67;13.57;;;14.10;99.90;;;;;;5049844;28;20444;-60
2022/05/06 03:24:01;;;;;;;14.77;12.90;;;13.80;99.90;;;;;;5048031;28;20288;-61
2022/05/06 03:26:27;;;;;;;16.10;13.43;;;13.90;99.90;;;;;;5043312;28;20206;-61
2022/05/06 03:28:56;;;;;;;18.47;14.47;;;14.20;99.90;;;;;;5048148;28;20209;-60
2022/05/06 03:31:22;;;;;;;16.83;14.40;;;14.20;99.90;;;;;;5045343;28;20174;-60
2022/05/06 03:33:49;;;;;;;17.40;12.87;;;14.30;99.90;;;;;;5049341;28;20223;-60
2022/05/06 03:36:15;;;;;;;16.08;13.95;;;14.00;99.90;;;;;;5049617;28;20190;-60
2022/05/06 03:38:40;;;;;;;14.87;13.43;;;13.90;99.90;;;;;;5050739;28;20228;-61
2022/05/06 03:41:06;;;;;;;19.33;13.90;;;13.90;99.90;;;;;;5046702;28;20220;-61
2022/05/06 03:43:32;;;;;;;17.43;15.10;;;14.00;99.90;;;;;;5046825;28;20193;-60
2022/05/06 03:45:57;;;;;;;13.67;12.27;;;14.00;99.90;;;;;;5049720;28;20209;-61
2022/05/06 03:48:24;;;;;;;14.83;13.23;;;13.80;99.90;;;;;;5049369;28;20312;-61
2022/05/06 03:53:38;;;;;;;15.30;13.48;;;14.10;99.90;;;;;;5049876;28;20323;-60
2022/05/06 03:56:05;;;;;;;16.07;13.23;;;14.10;99.90;;;;;;5046300;28;20287;-61
2022/05/06 03:58:32;;;;;;;15.25;13.23;;;14.00;99.90;;;;;;5049449;28;20474;-61
2022/05/06 04:00:58;;;;;;;14.15;12.85;;;14.00;99.90;;;;;;5039847;28;20182;-60
2022/05/06 04:03:24;;;;;;;14.68;12.40;;;14.00;99.90;;;;;;5041517;28;20251;-60
2022/05/06 04:05:50;;;;;;;13.90;12.50;;;13.80;99.90;;;;;;5041805;28;20332;-61
2022/05/06 04:08:16;;;;;;;14.73;12.80;;;13.90;99.90;;;;;;5040987;28;20559;-61
2022/05/06 04:10:42;;;;;;;17.80;13.93;;;14.10;99.90;;;;;;5046897;28;20502;-61
2022/05/06 04:13:07;;;;;;;15.73;12.87;;;13.90;99.90;;;;;;5044964;28;20178;-61
2022/05/06 04:15:33;;;;;;;17.07;12.53;;;13.70;99.90;;;;;;5044006;28;20380;-62
2022/05/06 04:18:00;;;;;;;16.80;13.47;;;14.10;99.90;;;;;;5042991;28;20433;-62
2022/05/06 04:26:02;;;;;;;15.48;13.30;;;14.30;99.90;;;;;;5044268;28;20228;-61
2022/05/06 04:28:30;;;;;;;14.15;12.55;;;14.20;99.90;;;;;;5046860;28;20205;-61
2022/05/06 04:30:56;;;;;;;14.95;13.10;;;14.10;99.90;;;;;;5048534;28;20186;-61
2022/05/06 04:33:24;;;;;;;16.10;13.50;;;14.10;99.90;;;;;;5043401;28;20602;-61
2022/05/06 04:35:51;;;;;;;13.52;12.13;;;14.00;99.90;;;;;;5047907;28;20210;-61
2022/05/06 04:38:17;;;;;;;14.98;13.43;;;14.00;99.90;;;;;;5047926;28;20264;-61
2022/05/06 04:40:42;;;;;;;14.70;13.13;;;13.90;99.90;;;;;;5049893;28;20289;-61
2022/05/06 04:43:08;;;;;;;15.37;13.77;;;14.10;99.90;;;;;;5049867;28;20260;-61
2022/05/06 04:45:41;;;;;;;15.20;13.68;;;14.00;99.90;;;;;;5051843;28;20211;-61
2022/05/06 04:48:08;;;;;;;15.27;12.88;;;14.10;99.90;;;;;;5038908;28;20225;-61
2022/05/06 04:50:35;;;;;;;16.65;12.60;;;14.00;99.90;;;;;;5050110;28;20536;-61
2022/05/06 04:53:01;;;;;;;14.60;13.13;;;13.70;99.90;;;;;;5045269;28;20217;-60
2022/05/06 04:55:27;;;;;;;15.50;13.90;;;14.00;99.90;;;;;;5053098;28;20695;-63
2022/05/06 04:57:53;;;;;;;16.40;14.53;;;13.90;99.90;;;;;;5047323;28;20188;-61
2022/05/06 05:00:22;;;;;;;13.93;12.18;;;14.10;99.90;;;;;;5047537;28;20940;-67
2022/05/06 05:02:48;;;;;;;16.10;13.52;;;13.90;99.90;;;;;;5046784;28;20264;-60
2022/05/06 05:05:14;;;;;;;18.83;13.27;;;13.90;99.90;;;;;;5054869;28;20208;-64
2022/05/06 05:07:40;;;;;;;14.90;13.40;;;13.90;99.90;;;;;;5050431;28;21279;-69
2022/05/06 05:10:07;;;;;;;16.58;14.57;;;13.80;99.90;;;;;;5065098;28;20186;-72
2022/05/06 05:12:32;;;;;;;17.45;15.65;;;13.50;99.90;;;;;;5043839;28;20297;-72
2022/05/06 05:14:58;;;;;;;17.97;13.10;;;13.40;99.90;;;;;;5052206;28;20290;-64
2022/05/06 05:17:24;;;;;;;15.30;13.90;;;13.80;99.90;;;;;;5045568;28;20243;-62
2022/05/06 05:19:49;;;;;;;12.50;11.27;;;13.70;99.90;;;;;;5050455;28;20196;-64
2022/05/06 05:22:15;;;;;;;14.43;13.03;;;13.90;99.90;;;;;;5049154;28;20185;-65
2022/05/06 05:24:41;;;;;;;12.63;11.33;;;13.80;99.90;;;;;;5050369;28;20289;-63
2022/05/06 05:27:06;;;;;;;13.07;11.77;;;13.80;99.90;;;;;;5051194;28;20217;-64
2022/05/06 05:29:32;;;;;;;12.20;11.00;;;14.20;99.90;;;;;;5041186;28;20201;-64
2022/05/06 05:31:58;;;;;;;12.83;10.90;;;14.00;99.90;;;;;;5049872;28;21321;-68
2022/05/06 05:34:23;;;;;;;13.53;10.53;;;14.20;99.90;;;;;;5051334;28;20273;-63
2022/05/06 05:36:50;;;;;;;12.30;10.80;;;14.10;99.90;;;;;;5047181;28;20835;-64
2022/05/06 05:39:15;;;;;;;13.88;11.15;;;14.20;99.90;;;;;;5054896;28;20215;-63
2022/05/06 05:41:41;;;;;;;14.17;12.50;;;13.60;99.90;;;;;;5047109;28;21121;-64
2022/05/06 05:49:35;;;;;;;16.02;12.07;;;14.20;99.90;;;;;;5042720;28;20205;-64
2022/05/06 05:52:00;;;;;;;13.83;12.33;;;14.20;99.90;;;;;;5046825;28;20193;-64
2022/05/06 05:54:26;;;;;;;15.87;12.57;;;13.80;99.90;;;;;;5050970;28;20216;-64
2022/05/06 05:56:52;;;;;;;13.30;12.00;;;13.80;99.90;;;;;;5066884;28;20189;-64
2022/05/06 05:59:18;;;;;;;13.77;12.45;;;13.90;99.90;;;;;;5049832;28;20603;-64
2022/05/06 06:01:44;;;;;;;14.33;12.87;;;13.80;99.90;;;;;;5044472;28;20185;-65
2022/05/06 06:04:09;;;;;;;17.37;13.90;;;14.00;99.90;;;;;;5046043;28;20232;-70
2022/05/06 06:06:35;;;;;;;15.70;14.23;;;13.90;99.90;;;;;;5045270;28;20201;-67
2022/05/06 06:09:01;;;;;;;13.40;12.03;;;13.60;99.90;;;;;;5050242;28;20196;-63
2022/05/06 06:11:26;;;;;;;14.73;13.20;;;13.90;99.90;;;;;;5050573;28;20190;-64
2022/05/06 06:13:52;;;;;;;15.23;13.80;;;13.80;99.90;;;;;;5048680;28;20186;-65
2022/05/06 06:16:19;;;;;;;13.17;11.77;;;13.80;99.90;;;;;;5048740;28;20185;-65
2022/05/06 06:18:46;;;;;;;13.20;11.95;;;14.00;99.90;;;;;;5047127;28;20281;-66
2022/05/06 06:21:12;;;;;;;16.52;13.07;;;14.10;99.90;;;;;;5050668;28;20181;-67
2022/05/06 06:23:37;;;;;;;13.53;12.13;;;13.80;99.90;;;;;;5048394;28;20692;-68
2022/05/06 06:26:03;;;;;;;12.80;11.60;;;14.00;99.90;;;;;;5048348;28;20209;-65
2022/05/06 06:28:29;;;;;;;14.97;12.50;;;14.20;99.90;;;;;;5047532;28;20235;-64
2022/05/06 06:30:54;;;;;;;14.53;12.43;;;14.20;99.90;;;;;;5050651;28;20181;-64
2022/05/06 06:33:20;;;;;;;13.37;12.07;;;14.30;99.90;;;;;;5050201;28;20189;-63
2022/05/06 06:35:45;;;;;;;16.43;12.93;;;14.10;99.90;;;;;;5050400;28;20501;-63
2022/05/06 06:38:11;;;;;;;14.23;12.20;;;14.20;99.90;;;;;;5046849;28;20630;-64
2022/05/06 06:40:37;;;;;;;13.73;12.03;;;14.10;99.90;;;;;;5050418;28;20220;-64
2022/05/06 06:43:04;;;;;;;13.30;12.00;;;14.30;99.90;;;;;;5050785;28;20196;-64
2022/05/06 06:45:30;;;;;;;14.82;12.77;;;14.00;99.90;;;;;;5050794;28;20204;-63
2022/05/06 06:47:58;;;;;;;15.60;12.68;;;13.90;99.90;;;;;;5059020;28;20228;-62
2022/05/06 06:50:24;;;;;;;13.95;11.90;;;14.10;99.90;;;;;;5050452;28;20182;-64
2022/05/06 06:52:50;;;;;;;14.90;12.73;;;14.10;99.90;;;;;;5050452;28;20354;-64
2022/05/06 06:55:16;;;;;;;14.13;12.35;;;13.80;99.90;;;;;;5049956;28;20251;-65
2022/05/06 06:57:41;;;;;;;15.00;13.40;;;14.40;99.90;;;;;;5048615;28;20818;-64
2022/05/06 07:00:08;;;;;;;13.67;12.30;;;14.00;99.90;;;;;;5048705;28;20448;-61
2022/05/06 07:02:36;;;;;;;14.82;13.05;;;14.00;99.90;;;;;;5057221;28;20185;-61
2022/05/06 07:05:02;;;;;;;16.70;13.57;;;14.20;99.90;;;;;;5049056;28;20931;-61
2022/05/06 07:12:56;;;;;;;13.35;11.95;;;14.10;99.90;;;;;;5049333;28;20189;-62
2022/05/06 07:15:23;;;;;;;13.23;11.73;;;14.30;99.90;;;;;;5049561;28;20205;-62
2022/05/06 07:17:49;;;;;;;13.90;12.10;;;14.20;99.90;;;;;;5040308;28;20274;-62
2022/05/06 07:20:14;;;;;;;13.98;12.52;;;13.90;99.90;;;;;;5051842;28;20739;-62
2022/05/06 07:22:40;;;;;;;15.37;13.63;;;14.00;99.90;;;;;;5046583;28;20198;-62
2022/05/06 07:25:06;;;;;;;14.13;12.27;;;13.90;99.90;;;;;;5044306;28;20216;-63
2022/05/06 07:27:35;;;;;;;13.50;12.20;;;13.80;99.90;;;;;;5041704;28;20228;-67
2022/05/06 07:30:03;;;;;;;17.85;11.40;;;14.00;99.90;;;;;;5044328;28;20275;-65
2022/05/06 07:32:30;;;;;;;12.27;10.70;;;14.30;99.90;;;;;;5042262;28;20182;-65
2022/05/06 07:34:56;;;;;;;28.75;16.75;;;14.30;99.90;;;;;;5047584;28;20225;-65
2022/05/06 07:37:22;;;;;;;31.60;16.67;;;14.50;99.90;;;;;;5056515;28;20190;-67
2022/05/06 07:39:47;;;;;;;31.37;16.57;;;14.20;99.90;;;;;;5042265;28;20297;-70
2022/05/06 07:42:14;;;;;;;18.50;11.97;;;14.30;99.90;;;;;;5044723;28;20280;-63
2022/05/06 07:44:40;;;;;;;126.78;40.55;;;14.40;99.90;;;;;;5045285;28;20475;-64
2022/05/06 07:47:06;;;;;;;326.47;95.47;;;14.40;99.90;;;;;;5044442;28;20205;-61
2022/05/06 07:49:31;;;;;;;14.60;11.37;;;14.30;99.90;;;;;;5043811;28;20724;-62
2022/05/06 07:51:57;;;;;;;17.03;10.80;;;14.30;99.90;;;;;;5047696;28;20435;-65
2022/05/06 07:54:23;;;;;;;13.33;10.90;;;14.70;99.90;;;;;;5047624;28;20198;-65
2022/05/06 07:56:48;;;;;;;11.83;10.60;;;14.40;99.90;;;;;;5049020;28;20193;-64
2022/05/06 07:59:14;;;;;;;11.23;10.00;;;14.50;99.90;;;;;;5045319;28;20204;-66
2022/05/06 08:04:33;;;;;;;10.63;9.63;;;14.50;99.90;;;;;;5041916;28;20228;-65
2022/05/06 08:06:59;;;;;;;10.70;9.70;;;14.60;99.90;;;;;;5048372;28;20205;-65
2022/05/06 08:09:25;;;;;;;10.40;9.40;;;14.70;99.90;;;;;;5043581;28;20631;-64
2022/05/06 08:11:51;;;;;;;10.00;9.10;;;14.90;99.90;;;;;;5044065;28;20289;-63
2022/05/06 08:14:18;;;;;;;10.35;9.45;;;15.20;99.90;;;;;;5045571;28;20308;-69
2022/05/06 08:16:44;;;;;;;9.95;9.05;;;15.20;99.90;;;;;;5044570;28;20258;-71
2022/05/06 08:19:11;;;;;;;9.82;8.85;;;15.20;99.90;;;;;;5048474;28;20181;-76
2022/05/06 08:21:37;;;;;;;9.95;8.60;;;15.30;99.90;;;;;;5064326;28;20177;-70
2022/05/06 08:24:03;;;;;;;10.63;9.17;;;15.70;99.90;;;;;;5045236;28;20210;-63
2022/05/06 08:26:29;;;;;;;10.82;9.73;;;15.20;99.90;;;;;;5047021;28;20489;-64
2022/05/06 08:28:55;;;;;;;9.93;7.40;;;15.50;99.90;;;;;;5044279;28;20264;-64
2022/05/06 08:31:21;;;;;;;9.13;8.23;;;15.50;99.90;;;;;;5043345;28;20638;-65
2022/05/06 08:33:46;;;;;;;13.20;10.27;;;15.70;99.90;;;;;;5048240;28;20222;-65
2022/05/06 08:36:12;;;;;;;9.03;8.23;;;15.70;99.90;;;;;;5049550;28;20197;-65
2022/05/06 08:38:38;;;;;;;9.60;8.60;;;15.40;99.90;;;;;;5047730;28;20785;-68
2022/05/06 08:41:05;;;;;;;11.88;9.15;;;15.80;99.90;;;;;;5041482;28;20213;-64
2022/05/06 08:43:32;;;;;;;10.15;8.63;;;15.60;99.90;;;;;;5041426;28;20217;-64
2022/05/06 08:51:35;;;;;;;9.43;8.45;;;15.90;99.90;;;;;;5040838;28;20185;-65
2022/05/06 08:54:01;;;;;;;8.95;8.15;;;16.00;99.90;;;;;;5038733;28;20189;-68
2022/05/06 08:56:27;;;;;;;9.82;8.80;;;16.20;99.90;;;;;;5046033;28;20198;-66
2022/05/06 08:58:54;;;;;;;7.72;6.90;;;16.10;99.90;;;;;;5046052;28;20661;-68
2022/05/06 09:01:22;;;;;;;10.32;8.15;;;16.00;99.90;;;;;;5047511;28;20186;-66
2022/05/06 09:03:48;;;;;;;8.15;7.35;;;16.20;99.90;;;;;;5046181;28;20188;-66
2022/05/06 09:06:21;;;;;;;8.27;7.57;;;16.10;99.90;;;;;;5043657;28;20221;-67
2022/05/06 09:08:49;;;;;;;9.48;8.35;;;16.00;99.90;;;;;;5044629;28;21936;-65
2022/05/06 09:11:17;;;;;;;9.65;7.97;;;16.00;99.90;;;;;;5047340;28;20179;-65
2022/05/06 09:13:49;;;;;;;13.43;8.30;;;16.10;99.90;;;;;;5042283;28;20182;-62
2022/05/06 09:19:22;;;;;;;9.93;8.93;;;16.40;99.90;;;;;;5040178;28;20196;-70
2022/05/06 09:22:17;;;;;;;9.25;7.82;;;16.40;99.90;;;;;;5043957;28;20190;-65
2022/05/06 09:24:44;;;;;;;9.77;8.73;;;16.70;99.90;;;;;;5043040;28;20213;-64
2022/05/06 09:27:12;;;;;;;9.00;7.93;;;16.70;99.10;;;;;;5043115;28;20678;-63
2022/05/06 09:29:41;;;;;;;8.40;7.50;;;16.80;99.10;;;;;;5049128;28;20190;-66
2022/05/06 09:32:27;;;;;;;8.10;7.30;;;16.50;98.90;;;;;;5047520;28;20186;-67
2022/05/06 09:34:55;;;;;;;9.07;7.47;;;16.20;98.90;;;;;;5048682;28;20237;-69
2022/05/06 09:37:38;;;;;;;10.25;8.10;;;16.80;99.10;;;;;;5048563;28;20533;-68
2022/05/06 09:40:08;;;;;;;8.00;7.30;;;16.60;99.10;;;;;;5044369;28;20592;-62
2022/05/06 09:42:37;;;;;;;8.48;7.05;;;16.70;98.60;;;;;;5047811;28;20217;-61
2022/05/06 09:45:03;;;;;;;8.65;7.82;;;16.80;98.70;;;;;;5050418;28;20211;-62
2022/05/06 09:47:29;;;;;;;8.40;7.50;;;17.00;98.30;;;;;;5047838;28;20744;-66
2022/05/06 09:49:55;;;;;;;8.50;7.13;;;17.10;98.40;;;;;;5034487;28;20651;-65
2022/05/06 09:52:21;;;;;;;8.70;7.70;;;17.50;98.20;;;;;;5046149;28;20189;-63
2022/05/06 09:54:48;;;;;;;9.73;8.17;;;17.40;98.10;;;;;;5044079;28;20701;-65
2022/05/06 09:57:16;;;;;;;8.88;7.97;;;17.10;98.00;;;;;;5050164;28;20273;-64
2022/05/06 09:59:41;;;;;;;8.00;7.30;;;17.30;97.50;;;;;;5064355;28;20190;-60
2022/05/06 10:02:08;;;;;;;8.70;7.57;;;17.40;97.30;;;;;;5039370;28;20259;-61
2022/05/06 10:04:35;;;;;;;8.18;7.25;;;18.00;96.80;;;;;;5050938;28;20472;-61
2022/05/06 10:07:04;;;;;;;10.65;9.60;;;17.90;96.20;;;;;;5051029;28;20247;-61
2022/05/06 10:09:34;;;;;;;8.38;7.57;;;17.80;96.10;;;;;;5051368;28;20217;-61
2022/05/06 10:12:03;;;;;;;10.63;7.60;;;18.00;95.90;;;;;;5045404;28;20213;-62
2022/05/06 10:14:29;;;;;;;8.73;7.93;;;18.10;95.70;;;;;;5050714;28;20209;-62
2022/05/06 10:16:55;;;;;;;8.30;7.20;;;17.60;95.30;;;;;;5049783;28;20190;-62
2022/05/06 10:19:44;;;;;;;8.27;7.40;;;18.00;95.40;;;;;;5049467;28;20235;-63
2022/05/06 10:22:10;;;;;;;8.73;7.93;;;18.60;95.00;;;;;;5050087;28;20188;-61
2022/05/06 10:24:49;;;;;;;10.98;8.35;;;18.60;94.60;;;;;;5050262;28;20216;-62
2022/05/06 10:33:17;;;;;;;7.40;6.72;;;19.50;92.20;;;;;;5048820;28;20658;-61
2022/05/06 10:35:45;;;;;;;10.15;9.07;;;19.80;92.50;;;;;;5050065;28;20284;-62
2022/05/06 10:38:25;;;;;;;8.32;7.50;;;20.00;91.60;;;;;;5050419;28;20269;-62
2022/05/06 10:40:58;;;;;;;8.15;7.45;;;19.90;91.10;;;;;;5049886;28;20740;-61
2022/05/06 10:43:43;;;;;;;13.07;7.65;;;20.30;91.00;;;;;;5050714;28;20601;-60
2022/05/06 10:46:08;;;;;;;8.30;7.50;;;20.50;90.20;;;;;;5050447;28;20209;-60
2022/05/06 10:48:34;;;;;;;8.73;7.60;;;20.70;89.20;;;;;;5048341;28;20182;-61
2022/05/06 10:51:27;;;;;;;8.40;7.25;;;20.70;89.90;;;;;;5047458;28;20533;-65
2022/05/06 10:53:54;;;;;;;8.75;7.60;;;20.80;89.10;;;;;;5055500;28;20558;-65
2022/05/06 10:56:19;;;;;;;7.78;7.00;;;20.40;89.50;;;;;;5046433;28;20182;-67
2022/05/06 10:58:45;;;;;;;8.23;6.93;;;20.50;88.60;;;;;;5050130;28;20196;-71
2022/05/06 11:01:17;;;;;;;6.93;6.23;;;20.90;87.60;;;;;;5047593;28;20185;-69
2022/05/06 11:03:52;;;;;;;8.25;6.78;;;20.90;86.20;;;;;;5049448;28;20203;-61
2022/05/06 11:06:24;;;;;;;7.18;6.45;;;22.10;86.50;;;;;;5050195;28;20297;-61
2022/05/06 11:08:50;;;;;;;6.57;5.93;;;21.90;82.40;;;;;;5049487;28;20235;-61
2022/05/06 11:11:18;;;;;;;6.65;5.93;;;21.90;81.30;;;;;;5044466;28;20945;-61
2022/05/06 11:13:47;;;;;;;9.32;6.30;;;22.50;79.50;;;;;;5049133;28;20553;-61
2022/05/06 11:16:14;;;;;;;6.78;6.15;;;22.50;78.60;;;;;;5041724;28;20319;-61
2022/05/06 11:18:44;;;;;;;5.80;5.30;;;22.80;78.00;;;;;;5046450;28;20268;-60
2022/05/06 11:21:31;;;;;;;7.90;5.97;;;23.20;77.00;;;;;;5045509;28;20467;-63
2022/05/06 11:23:57;;;;;;;6.90;6.30;;;23.50;73.70;;;;;;5048219;28;20440;-63
2022/05/06 11:26:27;;;;;;;6.33;5.73;;;22.90;73.80;;;;;;5049717;28;20468;-64
2022/05/06 11:29:04;;;;;;;6.20;5.70;;;22.90;74.80;;;;;;5050385;28;20696;-63
2022/05/06 11:31:29;;;;;;;7.50;6.80;;;23.80;73.90;;;;;;5049735;28;20432;-62
2022/05/06 11:34:06;;;;;;;7.77;6.40;;;24.00;69.90;;;;;;5049158;28;21022;-64
2022/05/06 11:36:32;;;;;;;8.50;5.93;;;23.20;71.10;;;;;;5051994;28;20195;-64
2022/05/06 11:38:58;;;;;;;5.80;5.30;;;23.00;72.90;;;;;;5037042;28;20803;-64
2022/05/06 11:41:24;;;;;;;6.00;5.40;;;23.00;73.00;;;;;;5039207;28;20530;-66
2022/05/06 11:43:50;;;;;;;6.47;5.88;;;22.40;73.20;;;;;;5046847;28;20189;-69
2022/05/06 11:49:06;;;;;;;5.67;5.10;;;22.40;73.90;;;;;;5045415;28;20196;-67
2022/05/06 11:51:39;;;;;;;7.55;6.50;;;22.00;74.90;;;;;;5047901;28;20505;-66
2022/05/06 11:54:06;;;;;;;6.10;5.55;;;21.60;76.60;;;;;;5039922;28;20223;-63
2022/05/06 11:56:33;;;;;;;6.90;6.25;;;21.40;76.90;;;;;;5041059;28;20219;-63
2022/05/06 11:59:00;;;;;;;6.25;5.60;;;21.70;76.30;;;;;;5048173;28;20272;-64
2022/05/06 12:01:31;;;;;;;7.10;5.43;;;21.90;75.50;;;;;;5042482;28;20241;-68
2022/05/06 12:04:01;;;;;;;6.10;5.50;;;21.40;76.00;;;;;;5044531;28;20260;-68
2022/05/06 12:06:27;;;;;;;6.40;5.80;;;21.70;75.70;;;;;;5046616;28;20225;-67
2022/05/06 12:09:06;;;;;;;6.18;5.68;;;21.60;75.90;;;;;;5061478;28;20209;-67
2022/05/06 12:11:35;;;;;;;7.35;6.70;;;21.40;76.50;;;;;;5043365;28;20619;-66
2022/05/06 12:14:06;;;;;;;6.60;6.00;;;21.10;78.40;;;;;;5039341;28;20272;-67
2022/05/06 12:16:31;;;;;;;8.50;6.13;;;21.20;78.60;;;;;;5038056;28;20181;-67
2022/05/06 12:18:58;;;;;;;7.80;7.00;;;20.90;78.90;;;;;;5047402;28;20192;-68
2022/05/06 12:21:26;;;;;;;6.30;5.70;;;21.20;78.70;;;;;;5048608;28;20205;-66
2022/05/06 12:24:00;;;;;;;7.30;6.20;;;21.40;76.40;;;;;;5047938;28;20192;-69
2022/05/06 12:26:37;;;;;;;6.85;6.13;;;21.30;75.20;;;;;;5044666;28;20340;-67
2022/05/06 12:29:20;;;;;;;6.47;5.88;;;21.30;74.90;;;;;;5041385;28;20215;-67
2022/05/06 12:31:46;;;;;;;7.20;5.47;;;21.30;74.50;;;;;;5045551;28;20215;-67
2022/05/06 12:34:11;;;;;;;6.82;6.18;;;21.20;75.60;;;;;;5034152;28;20203;-69
2022/05/06 12:36:38;;;;;;;6.53;5.80;;;20.90;77.20;;;;;;5046147;28;20230;-66
2022/05/06 12:39:20;;;;;;;7.40;6.70;;;20.70;78.00;;;;;;5047897;28;20189;-66
2022/05/06 12:41:46;;;;;;;7.78;5.88;;;20.80;78.80;;;;;;5062726;28;20567;-66
2022/05/06 12:44:15;;;;;;;6.80;5.80;;;21.10;76.90;;;;;;5048429;28;20210;-69
2022/05/06 12:46:45;;;;;;;7.05;5.15;;;21.00;77.60;;;;;;5036541;28;20456;-68
2022/05/06 12:51:56;;;;;;;5.80;5.30;;;21.40;75.20;;;;;;5038092;28;20682;-67
2022/05/06 12:54:22;;;;;;;6.90;5.53;;;21.40;76.10;;;;;;5050803;28;20210;-66
2022/05/06 12:56:48;;;;;;;6.60;6.00;;;21.00;76.80;;;;;;5040534;28;20542;-67
2022/05/06 12:59:14;;;;;;;5.67;5.27;;;21.00;77.80;;;;;;5040268;28;20452;-67
2022/05/06 13:01:40;;;;;;;6.35;5.75;;;21.20;76.50;;;;;;5048416;28;20450;-66
2022/05/06 13:04:05;;;;;;;5.97;5.20;;;21.00;77.60;;;;;;5045799;28;20221;-68
2022/05/06 13:06:31;;;;;;;7.03;6.07;;;21.40;76.90;;;;;;5052580;28;20570;-66
2022/05/06 13:08:57;;;;;;;7.35;5.90;;;21.30;76.90;;;;;;5051437;28;20192;-67
2022/05/06 13:11:23;;;;;;;7.03;6.43;;;21.10;76.70;;;;;;5047890;28;20484;-71
2022/05/06 13:13:49;;;;;;;6.37;5.77;;;21.20;77.10;;;;;;5052533;28;20450;-66
2022/05/06 13:16:14;;;;;;;5.73;5.23;;;21.00;77.70;;;;;;5049782;28;20186;-66
2022/05/06 13:18:40;;;;;;;8.70;5.47;;;21.20;77.90;;;;;;5049899;28;20181;-67
2022/05/06 13:21:06;;;;;;;8.30;5.80;;;21.30;75.70;;;;;;5046778;28;20197;-70
2022/05/06 13:23:32;;;;;;;6.57;5.70;;;21.10;76.40;;;;;;5043764;28;20281;-66